Hauptseite
METAR-TAF:

METAR-TAF

Flughäfen :

Macas, Ecuador

Breite: 02-17-57-S, Länge: 078-07-15-W, Höhe: 1052 m

Beobachtung

Neuester Wetterbericht von vor 24 Minuten, um 19:12 UTC
Wind 1 kt aus Ost/Südost
Temperatur 18°C
Luftfeuchtigkeit 94%
Luftdruck 1022 hPa
Sichtweite: 5000 m
Aufgelockert bewölkt in der Höhe von 800 ft
Durchbrochene Bewölkung in der Höhe von 2000 ft
Geschlossene Wolkendecke in der Höhe von 8000 ft
Schauer in der Nähe, Nebelschwaden

METAR: SEMC 251912Z 12001KT 5000 VCSH BCFG SCT008 BKN020 OVC080 18/17 Q1022 RMK A3018

Zeit: 14:36 (19:36 UTC)


TAF: fehlend

Wetterbeobachtungen und Prognosen von mehr als 4000 Flughäfen (METAR und TAF Bericht).

Die verfügbaren Stationen werden durch gelbe und rote Markierungen auf der Karte dargestellt.

Führen Sie die Maus auf sie, um den Namen der Station zu sehen.

Darauf klicken, um die Beobachtung von Wetterbeobachtungen und Prognosen zu sehen.

Um die Karte zu ändern : klicken Sie auf den grünen Tasten mit einem schwarzen Kreuz Zum Vergrößern, auf den grünen Button mit einem Gedankenstrich zu verkleinern, oder auf die grünen Pfeile für benachbarte Karten.


METAR-TAF: